sensor_id;sensor_type;location;lat;lon;timestamp;P1;durP1;ratioP1;P2;durP2;ratioP2
3571;SDS011;7958;53.024;12.970;2023-02-28T00:02:25;2.50;;;2.07;;
3571;SDS011;7958;53.024;12.970;2023-02-28T00:04:52;2.03;;;1.87;;
3571;SDS011;7958;53.024;12.970;2023-02-28T00:07:26;1.90;;;1.80;;
3571;SDS011;7958;53.024;12.970;2023-02-28T00:09:53;2.40;;;2.07;;
3571;SDS011;7958;53.024;12.970;2023-02-28T00:12:20;2.07;;;1.83;;
3571;SDS011;7958;53.024;12.970;2023-02-28T00:14:47;3.40;;;1.97;;
3571;SDS011;7958;53.024;12.970;2023-02-28T00:17:13;4.70;;;2.20;;
3571;SDS011;7958;53.024;12.970;2023-02-28T00:19:39;1.50;;;1.40;;
3571;SDS011;7958;53.024;12.970;2023-02-28T00:22:06;2.37;;;1.90;;
3571;SDS011;7958;53.024;12.970;2023-02-28T00:24:32;1.80;;;1.40;;
3571;SDS011;7958;53.024;12.970;2023-02-28T00:26:59;2.07;;;1.80;;
3571;SDS011;7958;53.024;12.970;2023-02-28T00:29:26;1.57;;;1.47;;
3571;SDS011;7958;53.024;12.970;2023-02-28T00:31:53;1.70;;;1.60;;
3571;SDS011;7958;53.024;12.970;2023-02-28T00:34:19;2.70;;;1.73;;
3571;SDS011;7958;53.024;12.970;2023-02-28T00:36:45;3.73;;;1.70;;
3571;SDS011;7958;53.024;12.970;2023-02-28T00:39:15;1.60;;;1.50;;
3571;SDS011;7958;53.024;12.970;2023-02-28T00:41:41;1.80;;;1.67;;
3571;SDS011;7958;53.024;12.970;2023-02-28T00:44:07;1.67;;;1.57;;
3571;SDS011;7958;53.024;12.970;2023-02-28T00:46:35;2.93;;;2.00;;
3571;SDS011;7958;53.024;12.970;2023-02-28T00:49:01;2.13;;;2.00;;
3571;SDS011;7958;53.024;12.970;2023-02-28T00:51:28;2.70;;;1.50;;
3571;SDS011;7958;53.024;12.970;2023-02-28T00:53:54;2.17;;;2.00;;
3571;SDS011;7958;53.024;12.970;2023-02-28T00:56:20;1.50;;;1.40;;
3571;SDS011;7958;53.024;12.970;2023-02-28T00:58:47;2.10;;;1.50;;
3571;SDS011;7958;53.024;12.970;2023-02-28T01:01:13;1.73;;;1.60;;
3571;SDS011;7958;53.024;12.970;2023-02-28T01:03:41;1.47;;;1.37;;
3571;SDS011;7958;53.024;12.970;2023-02-28T01:06:07;1.80;;;1.70;;
3571;SDS011;7958;53.024;12.970;2023-02-28T01:08:34;2.13;;;1.87;;
3571;SDS011;7958;53.024;12.970;2023-02-28T01:11:06;1.70;;;1.60;;
3571;SDS011;7958;53.024;12.970;2023-02-28T01:13:34;2.00;;;1.50;;
3571;SDS011;7958;53.024;12.970;2023-02-28T01:16:00;1.80;;;1.70;;
3571;SDS011;7958;53.024;12.970;2023-02-28T01:18:27;1.37;;;1.37;;
3571;SDS011;7958;53.024;12.970;2023-02-28T01:20:55;3.90;;;1.97;;
3571;SDS011;7958;53.024;12.970;2023-02-28T01:23:21;2.30;;;2.10;;
3571;SDS011;7958;53.024;12.970;2023-02-28T01:25:49;2.00;;;1.63;;
3571;SDS011;7958;53.024;12.970;2023-02-28T01:28:15;4.57;;;1.50;;
3571;SDS011;7958;53.024;12.970;2023-02-28T01:30:42;1.80;;;1.70;;
3571;SDS011;7958;53.024;12.970;2023-02-28T01:33:08;1.80;;;1.70;;
3571;SDS011;7958;53.024;12.970;2023-02-28T01:35:34;1.50;;;1.40;;
3571;SDS011;7958;53.024;12.970;2023-02-28T01:38:02;1.70;;;1.50;;
3571;SDS011;7958;53.024;12.970;2023-02-28T01:40:29;2.20;;;2.00;;
3571;SDS011;7958;53.024;12.970;2023-02-28T01:42:56;2.00;;;1.77;;
3571;SDS011;7958;53.024;12.970;2023-02-28T01:45:23;2.20;;;2.00;;
3571;SDS011;7958;53.024;12.970;2023-02-28T01:47:52;2.17;;;1.80;;
3571;SDS011;7958;53.024;12.970;2023-02-28T01:50:22;3.33;;;1.83;;
3571;SDS011;7958;53.024;12.970;2023-02-28T01:52:49;1.60;;;1.50;;
3571;SDS011;7958;53.024;12.970;2023-02-28T01:55:17;2.40;;;1.77;;
3571;SDS011;7958;53.024;12.970;2023-02-28T01:57:45;1.60;;;1.50;;
3571;SDS011;7958;53.024;12.970;2023-02-28T02:00:15;2.80;;;2.47;;
3571;SDS011;7958;53.024;12.970;2023-02-28T02:02:44;3.13;;;1.93;;
3571;SDS011;7958;53.024;12.970;2023-02-28T02:05:12;5.80;;;2.30;;
3571;SDS011;7958;53.024;12.970;2023-02-28T02:07:42;1.90;;;1.80;;
3571;SDS011;7958;53.024;12.970;2023-02-28T02:10:11;1.90;;;1.80;;
3571;SDS011;7958;53.024;12.970;2023-02-28T02:15:41;2.33;;;2.13;;
3571;SDS011;7958;53.024;12.970;2023-02-28T02:18:10;2.07;;;1.93;;
3571;SDS011;7958;53.024;12.970;2023-02-28T02:20:57;4.67;;;2.07;;
3571;SDS011;7958;53.024;12.970;2023-02-28T02:23:41;2.57;;;1.97;;
3571;SDS011;7958;53.024;12.970;2023-02-28T02:26:27;1.70;;;1.47;;
3571;SDS011;7958;53.024;12.970;2023-02-28T02:29:13;2.70;;;2.17;;
3571;SDS011;7958;53.024;12.970;2023-02-28T02:32:04;1.70;;;1.60;;
3571;SDS011;7958;53.024;12.970;2023-02-28T02:37:25;2.43;;;2.20;;
3571;SDS011;7958;53.024;12.970;2023-02-28T02:39:58;2.93;;;1.70;;
3571;SDS011;7958;53.024;12.970;2023-02-28T02:42:29;5.20;;;2.13;;
3571;SDS011;7958;53.024;12.970;2023-02-28T02:45:01;2.50;;;1.63;;
3571;SDS011;7958;53.024;12.970;2023-02-28T02:47:31;1.87;;;1.77;;
3571;SDS011;7958;53.024;12.970;2023-02-28T02:50:01;1.90;;;1.33;;
3571;SDS011;7958;53.024;12.970;2023-02-28T02:52:30;2.10;;;1.80;;
3571;SDS011;7958;53.024;12.970;2023-02-28T02:54:59;1.97;;;1.87;;
3571;SDS011;7958;53.024;12.970;2023-02-28T02:57:34;2.20;;;1.80;;
3571;SDS011;7958;53.024;12.970;2023-02-28T03:00:02;2.73;;;1.80;;
3571;SDS011;7958;53.024;12.970;2023-02-28T03:02:32;2.20;;;1.70;;
3571;SDS011;7958;53.024;12.970;2023-02-28T03:05:02;2.03;;;1.60;;
3571;SDS011;7958;53.024;12.970;2023-02-28T03:07:31;1.67;;;1.57;;
3571;SDS011;7958;53.024;12.970;2023-02-28T03:09:57;1.80;;;1.70;;
3571;SDS011;7958;53.024;12.970;2023-02-28T03:12:26;2.00;;;1.80;;
3571;SDS011;7958;53.024;12.970;2023-02-28T03:15:00;2.07;;;1.87;;
3571;SDS011;7958;53.024;12.970;2023-02-28T03:17:37;2.87;;;2.03;;
3571;SDS011;7958;53.024;12.970;2023-02-28T03:20:15;4.80;;;2.77;;
3571;SDS011;7958;53.024;12.970;2023-02-28T03:22:55;2.97;;;2.67;;
3571;SDS011;7958;53.024;12.970;2023-02-28T03:25:29;3.63;;;2.77;;
3571;SDS011;7958;53.024;12.970;2023-02-28T03:28:00;3.83;;;3.00;;
3571;SDS011;7958;53.024;12.970;2023-02-28T03:30:32;6.57;;;3.33;;
3571;SDS011;7958;53.024;12.970;2023-02-28T03:33:03;3.13;;;2.53;;
3571;SDS011;7958;53.024;12.970;2023-02-28T03:35:36;2.60;;;2.20;;
3571;SDS011;7958;53.024;12.970;2023-02-28T03:38:05;3.40;;;2.73;;
3571;SDS011;7958;53.024;12.970;2023-02-28T03:40:34;3.63;;;2.17;;
3571;SDS011;7958;53.024;12.970;2023-02-28T03:43:04;2.93;;;1.90;;
3571;SDS011;7958;53.024;12.970;2023-02-28T03:45:35;1.83;;;1.63;;
3571;SDS011;7958;53.024;12.970;2023-02-28T03:48:03;4.47;;;2.47;;
3571;SDS011;7958;53.024;12.970;2023-02-28T03:50:35;1.80;;;1.70;;
3571;SDS011;7958;53.024;12.970;2023-02-28T03:53:04;2.43;;;1.83;;
3571;SDS011;7958;53.024;12.970;2023-02-28T03:55:34;1.67;;;1.57;;
3571;SDS011;7958;53.024;12.970;2023-02-28T03:58:05;1.43;;;1.33;;
3571;SDS011;7958;53.024;12.970;2023-02-28T04:00:37;1.50;;;1.40;;
3571;SDS011;7958;53.024;12.970;2023-02-28T04:03:05;1.60;;;1.50;;
3571;SDS011;7958;53.024;12.970;2023-02-28T04:05:32;1.43;;;1.33;;
3571;SDS011;7958;53.024;12.970;2023-02-28T04:08:04;1.60;;;1.50;;
3571;SDS011;7958;53.024;12.970;2023-02-28T04:10:31;2.07;;;1.87;;
3571;SDS011;7958;53.024;12.970;2023-02-28T04:12:58;1.50;;;1.40;;
3571;SDS011;7958;53.024;12.970;2023-02-28T04:15:24;3.93;;;1.57;;
3571;SDS011;7958;53.024;12.970;2023-02-28T04:17:52;3.07;;;1.63;;
3571;SDS011;7958;53.024;12.970;2023-02-28T04:20:18;1.07;;;1.03;;
3571;SDS011;7958;53.024;12.970;2023-02-28T04:22:45;1.83;;;1.60;;
3571;SDS011;7958;53.024;12.970;2023-02-28T04:25:13;2.00;;;1.70;;
3571;SDS011;7958;53.024;12.970;2023-02-28T04:27:39;1.63;;;1.50;;
3571;SDS011;7958;53.024;12.970;2023-02-28T04:30:06;1.70;;;1.60;;
3571;SDS011;7958;53.024;12.970;2023-02-28T04:32:33;2.53;;;1.83;;
3571;SDS011;7958;53.024;12.970;2023-02-28T04:35:00;1.20;;;1.10;;
3571;SDS011;7958;53.024;12.970;2023-02-28T04:37:27;1.37;;;1.27;;
3571;SDS011;7958;53.024;12.970;2023-02-28T04:39:53;1.80;;;1.67;;
3571;SDS011;7958;53.024;12.970;2023-02-28T04:42:21;5.90;;;1.87;;
3571;SDS011;7958;53.024;12.970;2023-02-28T04:44:48;1.60;;;1.40;;
3571;SDS011;7958;53.024;12.970;2023-02-28T04:47:14;1.57;;;1.47;;
3571;SDS011;7958;53.024;12.970;2023-02-28T04:49:40;2.33;;;1.50;;
3571;SDS011;7958;53.024;12.970;2023-02-28T04:52:07;1.33;;;1.20;;
3571;SDS011;7958;53.024;12.970;2023-02-28T04:54:35;2.30;;;1.47;;
3571;SDS011;7958;53.024;12.970;2023-02-28T04:57:03;1.00;;;1.00;;
3571;SDS011;7958;53.024;12.970;2023-02-28T04:59:31;3.40;;;1.50;;
3571;SDS011;7958;53.024;12.970;2023-02-28T05:01:57;1.60;;;1.43;;
3571;SDS011;7958;53.024;12.970;2023-02-28T05:04:24;6.10;;;1.60;;
3571;SDS011;7958;53.024;12.970;2023-02-28T05:06:50;1.43;;;1.20;;
3571;SDS011;7958;53.024;12.970;2023-02-28T05:09:16;1.37;;;1.30;;
3571;SDS011;7958;53.024;12.970;2023-02-28T05:11:43;1.33;;;1.23;;
3571;SDS011;7958;53.024;12.970;2023-02-28T05:14:10;1.80;;;1.30;;
3571;SDS011;7958;53.024;12.970;2023-02-28T05:16:39;3.83;;;1.23;;
3571;SDS011;7958;53.024;12.970;2023-02-28T05:19:06;2.80;;;1.27;;
3571;SDS011;7958;53.024;12.970;2023-02-28T05:21:33;2.23;;;1.20;;
3571;SDS011;7958;53.024;12.970;2023-02-28T05:24:01;1.40;;;1.30;;
3571;SDS011;7958;53.024;12.970;2023-02-28T05:26:29;1.60;;;1.17;;
3571;SDS011;7958;53.024;12.970;2023-02-28T05:28:56;2.37;;;1.30;;
3571;SDS011;7958;53.024;12.970;2023-02-28T05:31:23;1.20;;;1.07;;
3571;SDS011;7958;53.024;12.970;2023-02-28T05:33:51;1.37;;;1.10;;
3571;SDS011;7958;53.024;12.970;2023-02-28T05:36:17;1.40;;;1.30;;
3571;SDS011;7958;53.024;12.970;2023-02-28T05:38:45;1.73;;;1.30;;
3571;SDS011;7958;53.024;12.970;2023-02-28T05:41:12;2.67;;;1.10;;
3571;SDS011;7958;53.024;12.970;2023-02-28T05:43:39;1.17;;;1.07;;
3571;SDS011;7958;53.024;12.970;2023-02-28T05:46:06;1.97;;;1.40;;
3571;SDS011;7958;53.024;12.970;2023-02-28T05:48:34;1.23;;;1.13;;
3571;SDS011;7958;53.024;12.970;2023-02-28T05:51:03;1.43;;;1.13;;
3571;SDS011;7958;53.024;12.970;2023-02-28T05:53:30;1.53;;;1.20;;
3571;SDS011;7958;53.024;12.970;2023-02-28T05:55:57;3.33;;;1.40;;
3571;SDS011;7958;53.024;12.970;2023-02-28T05:58:23;2.20;;;1.87;;
3571;SDS011;7958;53.024;12.970;2023-02-28T06:00:54;1.60;;;1.37;;
3571;SDS011;7958;53.024;12.970;2023-02-28T06:03:20;1.60;;;0.97;;
3571;SDS011;7958;53.024;12.970;2023-02-28T06:05:47;4.53;;;1.07;;
3571;SDS011;7958;53.024;12.970;2023-02-28T06:08:16;3.37;;;1.30;;
3571;SDS011;7958;53.024;12.970;2023-02-28T06:10:43;1.07;;;1.07;;
3571;SDS011;7958;53.024;12.970;2023-02-28T06:13:10;1.10;;;1.00;;
3571;SDS011;7958;53.024;12.970;2023-02-28T06:15:37;1.03;;;1.00;;
3571;SDS011;7958;53.024;12.970;2023-02-28T06:18:04;1.10;;;1.00;;
3571;SDS011;7958;53.024;12.970;2023-02-28T06:20:30;2.57;;;1.37;;
3571;SDS011;7958;53.024;12.970;2023-02-28T06:22:57;2.63;;;1.23;;
3571;SDS011;7958;53.024;12.970;2023-02-28T06:25:26;1.50;;;1.40;;
3571;SDS011;7958;53.024;12.970;2023-02-28T06:27:53;1.37;;;1.27;;
3571;SDS011;7958;53.024;12.970;2023-02-28T06:30:19;6.80;;;1.50;;
3571;SDS011;7958;53.024;12.970;2023-02-28T06:32:48;1.67;;;1.40;;
3571;SDS011;7958;53.024;12.970;2023-02-28T06:35:15;1.50;;;1.40;;
3571;SDS011;7958;53.024;12.970;2023-02-28T06:37:42;1.40;;;1.30;;
3571;SDS011;7958;53.024;12.970;2023-02-28T06:40:09;1.37;;;1.27;;
3571;SDS011;7958;53.024;12.970;2023-02-28T06:42:39;2.33;;;1.20;;
3571;SDS011;7958;53.024;12.970;2023-02-28T06:45:06;1.57;;;1.40;;
3571;SDS011;7958;53.024;12.970;2023-02-28T06:47:34;1.20;;;1.10;;
3571;SDS011;7958;53.024;12.970;2023-02-28T06:50:00;2.10;;;1.60;;
3571;SDS011;7958;53.024;12.970;2023-02-28T06:52:27;1.50;;;1.20;;
3571;SDS011;7958;53.024;12.970;2023-02-28T06:54:53;2.00;;;1.33;;
3571;SDS011;7958;53.024;12.970;2023-02-28T06:57:24;1.20;;;1.10;;
3571;SDS011;7958;53.024;12.970;2023-02-28T06:59:52;1.73;;;1.33;;
3571;SDS011;7958;53.024;12.970;2023-02-28T07:02:18;1.80;;;1.30;;
3571;SDS011;7958;53.024;12.970;2023-02-28T07:04:45;1.93;;;1.80;;
3571;SDS011;7958;53.024;12.970;2023-02-28T07:07:11;0.97;;;0.97;;
3571;SDS011;7958;53.024;12.970;2023-02-28T07:09:38;3.20;;;1.73;;
3571;SDS011;7958;53.024;12.970;2023-02-28T07:12:04;1.60;;;1.50;;
3571;SDS011;7958;53.024;12.970;2023-02-28T07:14:31;1.00;;;1.00;;
3571;SDS011;7958;53.024;12.970;2023-02-28T07:16:59;1.37;;;1.27;;
3571;SDS011;7958;53.024;12.970;2023-02-28T07:19:25;1.40;;;1.30;;
3571;SDS011;7958;53.024;12.970;2023-02-28T07:21:52;1.37;;;1.30;;
3571;SDS011;7958;53.024;12.970;2023-02-28T07:24:18;1.83;;;1.70;;
3571;SDS011;7958;53.024;12.970;2023-02-28T07:26:44;1.37;;;1.30;;
3571;SDS011;7958;53.024;12.970;2023-02-28T07:29:15;1.90;;;1.40;;
3571;SDS011;7958;53.024;12.970;2023-02-28T07:31:41;1.40;;;1.40;;
3571;SDS011;7958;53.024;12.970;2023-02-28T07:34:09;1.53;;;1.37;;
3571;SDS011;7958;53.024;12.970;2023-02-28T07:36:35;1.90;;;1.50;;
3571;SDS011;7958;53.024;12.970;2023-02-28T07:39:02;1.57;;;1.47;;
3571;SDS011;7958;53.024;12.970;2023-02-28T07:41:29;2.13;;;1.60;;
3571;SDS011;7958;53.024;12.970;2023-02-28T07:43:58;1.73;;;1.63;;
3571;SDS011;7958;53.024;12.970;2023-02-28T07:46:25;1.87;;;1.73;;
3571;SDS011;7958;53.024;12.970;2023-02-28T07:48:52;2.03;;;1.70;;
3571;SDS011;7958;53.024;12.970;2023-02-28T07:51:25;5.67;;;1.97;;
3571;SDS011;7958;53.024;12.970;2023-02-28T07:53:52;2.17;;;1.90;;
3571;SDS011;7958;53.024;12.970;2023-02-28T07:56:18;2.77;;;2.37;;
3571;SDS011;7958;53.024;12.970;2023-02-28T07:58:45;2.83;;;2.50;;
3571;SDS011;7958;53.024;12.970;2023-02-28T08:01:13;4.03;;;2.57;;
3571;SDS011;7958;53.024;12.970;2023-02-28T08:03:39;7.63;;;3.60;;
3571;SDS011;7958;53.024;12.970;2023-02-28T08:06:07;7.30;;;4.10;;
3571;SDS011;7958;53.024;12.970;2023-02-28T08:08:35;6.30;;;3.53;;
3571;SDS011;7958;53.024;12.970;2023-02-28T08:11:02;9.20;;;5.57;;
3571;SDS011;7958;53.024;12.970;2023-02-28T08:13:29;7.43;;;4.77;;
3571;SDS011;7958;53.024;12.970;2023-02-28T08:15:56;4.53;;;3.70;;
3571;SDS011;7958;53.024;12.970;2023-02-28T08:18:22;10.00;;;7.40;;
3571;SDS011;7958;53.024;12.970;2023-02-28T08:20:49;15.00;;;7.97;;
3571;SDS011;7958;53.024;12.970;2023-02-28T08:23:15;6.97;;;4.20;;
3571;SDS011;7958;53.024;12.970;2023-02-28T08:25:43;7.80;;;5.53;;
3571;SDS011;7958;53.024;12.970;2023-02-28T08:28:15;10.00;;;5.67;;
3571;SDS011;7958;53.024;12.970;2023-02-28T08:30:42;7.03;;;4.47;;
3571;SDS011;7958;53.024;12.970;2023-02-28T08:33:08;8.77;;;6.73;;
3571;SDS011;7958;53.024;12.970;2023-02-28T08:35:35;6.27;;;4.27;;
3571;SDS011;7958;53.024;12.970;2023-02-28T08:38:01;8.73;;;5.43;;
3571;SDS011;7958;53.024;12.970;2023-02-28T08:40:28;6.00;;;4.10;;
3571;SDS011;7958;53.024;12.970;2023-02-28T08:42:55;11.30;;;4.43;;
3571;SDS011;7958;53.024;12.970;2023-02-28T08:45:23;9.37;;;5.37;;
3571;SDS011;7958;53.024;12.970;2023-02-28T08:47:53;6.37;;;4.90;;
3571;SDS011;7958;53.024;12.970;2023-02-28T08:50:21;5.77;;;5.10;;
3571;SDS011;7958;53.024;12.970;2023-02-28T08:52:47;11.80;;;6.83;;
3571;SDS011;7958;53.024;12.970;2023-02-28T08:55:13;7.10;;;4.80;;
3571;SDS011;7958;53.024;12.970;2023-02-28T08:57:40;4.30;;;3.60;;
3571;SDS011;7958;53.024;12.970;2023-02-28T09:00:09;7.90;;;4.30;;
3571;SDS011;7958;53.024;12.970;2023-02-28T09:02:38;6.43;;;4.27;;
3571;SDS011;7958;53.024;12.970;2023-02-28T09:05:05;4.53;;;3.47;;
3571;SDS011;7958;53.024;12.970;2023-02-28T09:07:32;5.40;;;4.23;;
3571;SDS011;7958;53.024;12.970;2023-02-28T09:09:58;7.20;;;4.90;;
3571;SDS011;7958;53.024;12.970;2023-02-28T09:12:27;8.20;;;4.70;;
3571;SDS011;7958;53.024;12.970;2023-02-28T09:14:59;6.33;;;4.87;;
3571;SDS011;7958;53.024;12.970;2023-02-28T09:17:26;6.40;;;4.37;;
3571;SDS011;7958;53.024;12.970;2023-02-28T09:19:53;5.80;;;4.27;;
3571;SDS011;7958;53.024;12.970;2023-02-28T09:22:19;5.63;;;4.30;;
3571;SDS011;7958;53.024;12.970;2023-02-28T09:24:46;6.50;;;4.40;;
3571;SDS011;7958;53.024;12.970;2023-02-28T09:27:12;7.93;;;4.83;;
3571;SDS011;7958;53.024;12.970;2023-02-28T09:29:38;7.83;;;4.57;;
3571;SDS011;7958;53.024;12.970;2023-02-28T09:32:05;8.20;;;6.13;;
3571;SDS011;7958;53.024;12.970;2023-02-28T09:34:33;14.10;;;10.20;;
3571;SDS011;7958;53.024;12.970;2023-02-28T09:37:01;10.03;;;5.53;;
3571;SDS011;7958;53.024;12.970;2023-02-28T09:39:28;5.43;;;4.00;;
3571;SDS011;7958;53.024;12.970;2023-02-28T09:41:55;5.73;;;3.60;;
3571;SDS011;7958;53.024;12.970;2023-02-28T09:44:23;6.57;;;4.40;;
3571;SDS011;7958;53.024;12.970;2023-02-28T09:47:05;12.97;;;10.10;;
3571;SDS011;7958;53.024;12.970;2023-02-28T09:49:37;5.30;;;4.23;;
3571;SDS011;7958;53.024;12.970;2023-02-28T09:52:06;6.23;;;4.40;;
3571;SDS011;7958;53.024;12.970;2023-02-28T09:54:42;4.30;;;3.90;;
3571;SDS011;7958;53.024;12.970;2023-02-28T09:57:10;6.53;;;3.90;;
3571;SDS011;7958;53.024;12.970;2023-02-28T09:59:44;4.13;;;3.30;;
3571;SDS011;7958;53.024;12.970;2023-02-28T10:02:23;4.40;;;2.90;;
3571;SDS011;7958;53.024;12.970;2023-02-28T10:05:20;3.73;;;2.67;;
3571;SDS011;7958;53.024;12.970;2023-02-28T10:07:55;2.60;;;2.40;;
3571;SDS011;7958;53.024;12.970;2023-02-28T10:10:27;3.80;;;3.20;;
3571;SDS011;7958;53.024;12.970;2023-02-28T10:12:56;3.13;;;2.83;;
3571;SDS011;7958;53.024;12.970;2023-02-28T10:15:25;3.73;;;2.83;;
3571;SDS011;7958;53.024;12.970;2023-02-28T10:17:56;3.40;;;2.63;;
3571;SDS011;7958;53.024;12.970;2023-02-28T10:20:28;2.70;;;2.30;;
3571;SDS011;7958;53.024;12.970;2023-02-28T10:22:58;2.20;;;1.90;;
3571;SDS011;7958;53.024;12.970;2023-02-28T10:25:32;3.70;;;2.50;;
3571;SDS011;7958;53.024;12.970;2023-02-28T10:27:59;2.77;;;2.57;;
3571;SDS011;7958;53.024;12.970;2023-02-28T10:30:31;2.40;;;2.10;;
3571;SDS011;7958;53.024;12.970;2023-02-28T10:32:57;2.20;;;2.00;;
3571;SDS011;7958;53.024;12.970;2023-02-28T10:35:25;1.60;;;1.30;;
3571;SDS011;7958;53.024;12.970;2023-02-28T10:37:55;3.00;;;1.50;;
3571;SDS011;7958;53.024;12.970;2023-02-28T10:40:27;6.10;;;1.73;;
3571;SDS011;7958;53.024;12.970;2023-02-28T10:42:56;1.73;;;1.50;;
3571;SDS011;7958;53.024;12.970;2023-02-28T10:45:24;2.60;;;1.67;;
3571;SDS011;7958;53.024;12.970;2023-02-28T10:47:56;1.50;;;1.33;;
3571;SDS011;7958;53.024;12.970;2023-02-28T10:50:27;6.70;;;1.50;;
3571;SDS011;7958;53.024;12.970;2023-02-28T10:55:57;2.60;;;1.97;;
3571;SDS011;7958;53.024;12.970;2023-02-28T10:58:30;2.20;;;1.40;;
3571;SDS011;7958;53.024;12.970;2023-02-28T11:00:58;1.13;;;0.80;;
3571;SDS011;7958;53.024;12.970;2023-02-28T11:03:29;3.33;;;1.17;;
3571;SDS011;7958;53.024;12.970;2023-02-28T11:05:58;2.80;;;1.50;;
3571;SDS011;7958;53.024;12.970;2023-02-28T11:08:26;3.57;;;1.80;;
3571;SDS011;7958;53.024;12.970;2023-02-28T11:10:54;1.83;;;1.40;;
3571;SDS011;7958;53.024;12.970;2023-02-28T11:13:21;2.67;;;1.60;;
3571;SDS011;7958;53.024;12.970;2023-02-28T11:15:53;2.07;;;1.43;;
3571;SDS011;7958;53.024;12.970;2023-02-28T11:18:24;2.17;;;1.47;;
3571;SDS011;7958;53.024;12.970;2023-02-28T11:20:54;1.50;;;1.40;;
3571;SDS011;7958;53.024;12.970;2023-02-28T11:23:23;1.97;;;1.87;;
3571;SDS011;7958;53.024;12.970;2023-02-28T11:25:52;1.70;;;1.60;;
3571;SDS011;7958;53.024;12.970;2023-02-28T11:28:25;1.77;;;1.67;;
3571;SDS011;7958;53.024;12.970;2023-02-28T11:30:59;2.40;;;1.67;;
3571;SDS011;7958;53.024;12.970;2023-02-28T11:33:28;3.50;;;1.87;;
3571;SDS011;7958;53.024;12.970;2023-02-28T11:35:57;1.67;;;1.53;;
3571;SDS011;7958;53.024;12.970;2023-02-28T11:38:25;2.00;;;1.60;;
3571;SDS011;7958;53.024;12.970;2023-02-28T11:40:57;1.73;;;1.50;;
3571;SDS011;7958;53.024;12.970;2023-02-28T11:43:35;4.20;;;1.50;;
3571;SDS011;7958;53.024;12.970;2023-02-28T11:46:12;20.47;;;14.10;;
3571;SDS011;7958;53.024;12.970;2023-02-28T11:48:46;4.50;;;3.30;;
3571;SDS011;7958;53.024;12.970;2023-02-28T11:51:18;2.80;;;2.30;;
3571;SDS011;7958;53.024;12.970;2023-02-28T11:53:51;2.97;;;1.70;;
3571;SDS011;7958;53.024;12.970;2023-02-28T11:56:42;7.13;;;2.10;;
3571;SDS011;7958;53.024;12.970;2023-02-28T11:59:18;2.23;;;1.50;;
3571;SDS011;7958;53.024;12.970;2023-02-28T12:02:01;2.30;;;2.10;;
3571;SDS011;7958;53.024;12.970;2023-02-28T12:04:36;1.50;;;1.40;;
3571;SDS011;7958;53.024;12.970;2023-02-28T12:07:09;1.73;;;1.63;;
3571;SDS011;7958;53.024;12.970;2023-02-28T12:09:46;2.30;;;1.83;;
3571;SDS011;7958;53.024;12.970;2023-02-28T12:12:21;1.70;;;1.47;;
3571;SDS011;7958;53.024;12.970;2023-02-28T12:14:54;5.43;;;2.20;;
3571;SDS011;7958;53.024;12.970;2023-02-28T12:17:32;2.30;;;1.63;;
3571;SDS011;7958;53.024;12.970;2023-02-28T12:20:05;1.50;;;1.40;;
3571;SDS011;7958;53.024;12.970;2023-02-28T12:22:39;3.97;;;1.67;;
3571;SDS011;7958;53.024;12.970;2023-02-28T12:27:59;3.37;;;2.10;;
3571;SDS011;7958;53.024;12.970;2023-02-28T12:30:27;2.80;;;1.70;;
3571;SDS011;7958;53.024;12.970;2023-02-28T12:32:55;2.10;;;1.40;;
3571;SDS011;7958;53.024;12.970;2023-02-28T12:35:25;2.30;;;2.17;;
3571;SDS011;7958;53.024;12.970;2023-02-28T12:37:54;5.40;;;1.90;;
3571;SDS011;7958;53.024;12.970;2023-02-28T12:40:23;3.87;;;2.20;;
3571;SDS011;7958;53.024;12.970;2023-02-28T12:42:54;1.60;;;1.50;;
3571;SDS011;7958;53.024;12.970;2023-02-28T12:45:24;2.47;;;1.60;;
3571;SDS011;7958;53.024;12.970;2023-02-28T12:48:06;2.23;;;1.90;;
3571;SDS011;7958;53.024;12.970;2023-02-28T12:50:35;2.50;;;2.10;;
3571;SDS011;7958;53.024;12.970;2023-02-28T12:53:02;5.00;;;1.80;;
3571;SDS011;7958;53.024;12.970;2023-02-28T12:55:31;2.00;;;1.90;;
3571;SDS011;7958;53.024;12.970;2023-02-28T12:58:05;5.70;;;3.70;;
3571;SDS011;7958;53.024;12.970;2023-02-28T13:00:38;5.70;;;3.60;;
3571;SDS011;7958;53.024;12.970;2023-02-28T13:03:32;4.27;;;2.53;;
3571;SDS011;7958;53.024;12.970;2023-02-28T13:06:21;2.20;;;2.00;;
3571;SDS011;7958;53.024;12.970;2023-02-28T13:09:02;1.73;;;1.63;;
3571;SDS011;7958;53.024;12.970;2023-02-28T13:11:31;3.20;;;2.20;;
3571;SDS011;7958;53.024;12.970;2023-02-28T13:13:59;1.80;;;1.40;;
3571;SDS011;7958;53.024;12.970;2023-02-28T13:16:28;4.50;;;1.90;;
3571;SDS011;7958;53.024;12.970;2023-02-28T13:19:15;2.87;;;1.70;;
3571;SDS011;7958;53.024;12.970;2023-02-28T13:21:43;6.23;;;1.97;;
3571;SDS011;7958;53.024;12.970;2023-02-28T13:24:11;2.10;;;2.00;;
3571;SDS011;7958;53.024;12.970;2023-02-28T13:29:37;2.77;;;2.07;;
3571;SDS011;7958;53.024;12.970;2023-02-28T13:40:51;2.07;;;1.80;;
3571;SDS011;7958;53.024;12.970;2023-02-28T13:43:17;1.83;;;1.73;;
3571;SDS011;7958;53.024;12.970;2023-02-28T13:48:34;2.87;;;2.63;;
3571;SDS011;7958;53.024;12.970;2023-02-28T13:54:00;3.93;;;2.07;;
3571;SDS011;7958;53.024;12.970;2023-02-28T13:56:33;2.90;;;1.70;;
3571;SDS011;7958;53.024;12.970;2023-02-28T13:59:06;2.57;;;2.00;;
3571;SDS011;7958;53.024;12.970;2023-02-28T14:01:46;1.73;;;1.63;;
3571;SDS011;7958;53.024;12.970;2023-02-28T14:04:25;4.77;;;1.80;;
3571;SDS011;7958;53.024;12.970;2023-02-28T14:07:05;2.07;;;1.87;;
3571;SDS011;7958;53.024;12.970;2023-02-28T14:09:32;2.20;;;2.00;;
3571;SDS011;7958;53.024;12.970;2023-02-28T14:15:00;2.00;;;1.80;;
3571;SDS011;7958;53.024;12.970;2023-02-28T14:17:27;1.90;;;1.70;;
3571;SDS011;7958;53.024;12.970;2023-02-28T14:19:55;3.97;;;2.30;;
3571;SDS011;7958;53.024;12.970;2023-02-28T14:22:36;1.63;;;1.53;;
3571;SDS011;7958;53.024;12.970;2023-02-28T14:25:15;1.93;;;1.70;;
3571;SDS011;7958;53.024;12.970;2023-02-28T14:27:46;3.10;;;2.20;;
3571;SDS011;7958;53.024;12.970;2023-02-28T14:33:27;4.10;;;2.17;;
3571;SDS011;7958;53.024;12.970;2023-02-28T14:36:04;2.67;;;1.80;;
3571;SDS011;7958;53.024;12.970;2023-02-28T14:38:35;2.27;;;1.57;;
3571;SDS011;7958;53.024;12.970;2023-02-28T14:41:05;1.60;;;1.50;;
3571;SDS011;7958;53.024;12.970;2023-02-28T14:43:47;2.40;;;1.60;;
3571;SDS011;7958;53.024;12.970;2023-02-28T14:46:14;1.77;;;1.67;;
3571;SDS011;7958;53.024;12.970;2023-02-28T14:48:44;3.83;;;1.90;;
3571;SDS011;7958;53.024;12.970;2023-02-28T14:51:13;1.43;;;1.33;;
3571;SDS011;7958;53.024;12.970;2023-02-28T14:53:44;2.03;;;1.83;;
3571;SDS011;7958;53.024;12.970;2023-02-28T14:56:19;2.33;;;1.50;;
3571;SDS011;7958;53.024;12.970;2023-02-28T14:58:50;3.30;;;2.20;;
3571;SDS011;7958;53.024;12.970;2023-02-28T15:01:18;2.50;;;2.30;;
3571;SDS011;7958;53.024;12.970;2023-02-28T15:03:45;7.40;;;2.17;;
3571;SDS011;7958;53.024;12.970;2023-02-28T15:06:14;3.23;;;1.80;;
3571;SDS011;7958;53.024;12.970;2023-02-28T15:08:42;3.27;;;1.63;;
3571;SDS011;7958;53.024;12.970;2023-02-28T15:11:12;3.10;;;2.00;;
3571;SDS011;7958;53.024;12.970;2023-02-28T15:13:40;1.73;;;1.63;;
3571;SDS011;7958;53.024;12.970;2023-02-28T15:16:09;1.77;;;1.67;;
3571;SDS011;7958;53.024;12.970;2023-02-28T15:18:39;3.23;;;1.50;;
3571;SDS011;7958;53.024;12.970;2023-02-28T15:21:11;3.13;;;1.77;;
3571;SDS011;7958;53.024;12.970;2023-02-28T15:23:39;3.73;;;1.90;;
3571;SDS011;7958;53.024;12.970;2023-02-28T15:26:09;2.40;;;2.10;;
3571;SDS011;7958;53.024;12.970;2023-02-28T15:28:37;2.83;;;1.80;;
3571;SDS011;7958;53.024;12.970;2023-02-28T15:31:03;1.80;;;1.70;;
3571;SDS011;7958;53.024;12.970;2023-02-28T15:33:51;1.80;;;1.70;;
3571;SDS011;7958;53.024;12.970;2023-02-28T15:36:18;2.10;;;1.80;;
3571;SDS011;7958;53.024;12.970;2023-02-28T15:38:47;2.50;;;2.00;;
3571;SDS011;7958;53.024;12.970;2023-02-28T15:41:26;2.30;;;2.07;;
3571;SDS011;7958;53.024;12.970;2023-02-28T15:46:58;3.43;;;1.67;;
3571;SDS011;7958;53.024;12.970;2023-02-28T15:49:27;2.63;;;1.70;;
3571;SDS011;7958;53.024;12.970;2023-02-28T15:51:55;4.23;;;1.70;;
3571;SDS011;7958;53.024;12.970;2023-02-28T15:54:27;2.73;;;2.07;;